Time;durP1;ratioP1;P1;durP2;ratioP2;P2;SDS_P1;SDS_P2;PMS_P1;PMS_P2;Temp;Humidity;BMP_temperature;BMP_pressure;BME280_temperature;BME280_humidity;BME280_pressure;Samples;Min_cycle;Max_cycle;Signal;HPM_P1;HPM_P2
2022/06/15 00:00:23;;;;;;;1.67;0.82;;;21.80;60.10;;;;;;5075600;28;20098;-60
2022/06/15 00:02:49;;;;;;;1.15;0.55;;;21.80;60.20;;;;;;5075600;28;20048;-60
2022/06/15 00:05:14;;;;;;;1.63;0.80;;;21.80;60.20;;;;;;5075003;28;20082;-60
2022/06/15 00:07:40;;;;;;;1.15;0.60;;;21.70;60.20;;;;;;5075799;28;20051;-60
2022/06/15 00:10:06;;;;;;;2.15;0.73;;;21.80;60.20;;;;;;5075453;28;20515;-60
2022/06/15 00:12:32;;;;;;;0.90;0.50;;;21.70;60.20;;;;;;5074585;28;20864;-61
2022/06/15 00:14:57;;;;;;;1.20;0.50;;;21.70;60.20;;;;;;5075693;28;20041;-60
2022/06/15 00:17:23;;;;;;;1.30;0.65;;;21.70;60.20;;;;;;5075880;28;20541;-60
2022/06/15 00:19:48;;;;;;;1.85;0.75;;;21.70;60.20;;;;;;5074654;28;20485;-60
2022/06/15 00:22:14;;;;;;;1.23;0.60;;;21.70;60.20;;;;;;5075742;28;20044;-60
2022/06/15 00:24:39;;;;;;;1.15;0.50;;;21.70;60.20;;;;;;5075332;28;20044;-61
2022/06/15 00:27:05;;;;;;;2.03;0.50;;;21.70;60.20;;;;;;5074913;28;20055;-60
2022/06/15 00:29:33;;;;;;;0.85;0.60;;;21.70;60.20;;;;;;5075602;28;20127;-60
2022/06/15 00:31:59;;;;;;;1.85;0.60;;;21.70;60.20;;;;;;5074099;28;20480;-59
2022/06/15 00:34:24;;;;;;;1.42;0.60;;;21.70;60.20;;;;;;5074596;28;20128;-60
2022/06/15 00:36:50;;;;;;;1.27;0.77;;;21.70;60.30;;;;;;5075340;28;20113;-60
2022/06/15 00:39:15;;;;;;;1.40;0.60;;;21.70;60.20;;;;;;5075543;28;20040;-60
2022/06/15 00:41:41;;;;;;;2.13;0.65;;;21.70;60.20;;;;;;5074275;28;20048;-60
2022/06/15 00:44:19;;;;;;;1.35;0.70;;;21.70;60.20;;;;;;5075450;28;20116;-60
2022/06/15 00:46:51;;;;;;;0.77;0.60;;;21.60;60.20;;;;;;5075030;28;20047;-60
2022/06/15 00:49:22;;;;;;;1.38;0.68;;;21.70;60.30;;;;;;5073474;28;20555;-61
2022/06/15 00:51:50;;;;;;;2.13;0.60;;;21.60;60.20;;;;;;5073807;28;20044;-60
2022/06/15 00:54:15;;;;;;;1.88;0.60;;;21.60;60.20;;;;;;5057615;28;20049;-60
2022/06/15 00:56:41;;;;;;;2.25;0.60;;;21.60;60.20;;;;;;5074050;28;20392;-60
2022/06/15 00:59:15;;;;;;;1.20;0.60;;;21.60;60.20;;;;;;5075176;28;20039;-60
2022/06/15 01:01:41;;;;;;;1.20;0.50;;;21.60;60.20;;;;;;5073017;28;20051;-60
2022/06/15 01:04:06;;;;;;;2.08;0.80;;;21.60;60.60;;;;;;5075112;28;20048;-60
2022/06/15 01:06:42;;;;;;;1.30;0.60;;;21.60;60.20;;;;;;5073430;28;20032;-60
2022/06/15 01:09:16;;;;;;;1.75;0.63;;;21.60;60.30;;;;;;5073016;28;20102;-60
2022/06/15 01:12:00;;;;;;;0.90;0.50;;;21.60;60.20;;;;;;5074535;28;20119;-60
2022/06/15 01:14:32;;;;;;;1.23;0.70;;;21.60;60.20;;;;;;5073834;28;20033;-60
2022/06/15 01:17:19;;;;;;;1.17;0.75;;;21.60;60.20;;;;;;5072689;28;20049;-60
2022/06/15 01:20:16;;;;;;;1.33;0.70;;;21.60;60.20;;;;;;5074573;28;20087;-60
2022/06/15 01:23:12;;;;;;;1.85;0.90;;;21.60;60.30;;;;;;5075400;28;20044;-60
2022/06/15 01:26:03;;;;;;;0.77;0.50;;;21.50;60.30;;;;;;5074468;28;20143;-60
2022/06/15 01:29:09;;;;;;;1.42;0.77;;;21.50;60.20;;;;;;5073500;28;20048;-60
2022/06/15 01:31:56;;;;;;;2.45;0.90;;;21.50;60.30;;;;;;5031269;28;20148;-61
2022/06/15 01:34:27;;;;;;;1.30;0.60;;;21.60;60.30;;;;;;5030548;28;20416;-60
2022/06/15 01:37:15;;;;;;;1.45;0.73;;;21.50;60.20;;;;;;5066250;28;20063;-61
2022/06/15 01:39:43;;;;;;;1.70;0.63;;;21.50;60.20;;;;;;5073960;28;20399;-61
2022/06/15 01:42:28;;;;;;;2.63;0.70;;;21.50;60.30;;;;;;5074219;28;20527;-60
2022/06/15 01:44:56;;;;;;;1.63;0.70;;;21.50;60.30;;;;;;5071955;28;20093;-60
2022/06/15 01:47:24;;;;;;;2.63;0.93;;;21.50;60.30;;;;;;5072862;28;20649;-60
2022/06/15 01:50:18;;;;;;;1.95;0.73;;;21.50;60.30;;;;;;5056088;28;20086;-60
2022/06/15 01:52:57;;;;;;;2.15;0.95;;;21.50;60.30;;;;;;5071766;28;20041;-60
2022/06/15 01:55:30;;;;;;;3.08;0.88;;;21.40;60.30;;;;;;5074521;28;20483;-61
2022/06/15 01:57:57;;;;;;;1.38;0.68;;;21.40;60.30;;;;;;5073065;28;20523;-60
2022/06/15 02:00:22;;;;;;;2.55;0.80;;;21.50;60.30;;;;;;5072373;28;20063;-60
2022/06/15 02:03:11;;;;;;;1.83;0.75;;;21.40;60.20;;;;;;5071655;28;20282;-61
2022/06/15 02:05:53;;;;;;;3.28;0.88;;;21.40;60.20;;;;;;5071544;28;20066;-60
2022/06/15 02:08:27;;;;;;;2.47;0.80;;;21.40;60.30;;;;;;5074660;28;20128;-60
2022/06/15 02:11:13;;;;;;;1.42;0.80;;;21.50;60.30;;;;;;5072659;28;20126;-60
2022/06/15 02:13:59;;;;;;;1.38;0.80;;;21.40;60.30;;;;;;5072860;28;20044;-60
2022/06/15 02:16:44;;;;;;;1.30;0.77;;;21.50;60.30;;;;;;5072232;28;20041;-61
2022/06/15 02:19:12;;;;;;;1.33;0.70;;;21.50;60.30;;;;;;5071429;28;20097;-60
2022/06/15 02:21:39;;;;;;;1.85;0.90;;;21.40;60.30;;;;;;5072460;28;20062;-60
2022/06/15 02:24:05;;;;;;;1.23;0.85;;;21.40;60.30;;;;;;5072170;28;20519;-60
2022/06/15 02:26:32;;;;;;;1.60;0.73;;;21.40;60.30;;;;;;5071088;28;20052;-60
2022/06/15 02:29:01;;;;;;;1.70;0.70;;;21.40;60.30;;;;;;5071829;28;20060;-60
2022/06/15 02:31:27;;;;;;;1.35;0.73;;;21.40;60.30;;;;;;5072398;28;20492;-60
2022/06/15 02:33:54;;;;;;;1.92;0.80;;;21.40;60.30;;;;;;5071175;28;20091;-60
2022/06/15 02:36:20;;;;;;;1.20;0.80;;;21.40;60.30;;;;;;5073437;28;20040;-60
2022/06/15 02:38:49;;;;;;;2.10;0.80;;;21.40;60.30;;;;;;5072874;28;20040;-60
2022/06/15 02:41:16;;;;;;;1.83;0.70;;;21.40;60.30;;;;;;5072344;28;20055;-60
2022/06/15 02:43:42;;;;;;;2.47;0.77;;;21.40;60.30;;;;;;5072672;28;20036;-60
2022/06/15 02:46:08;;;;;;;1.92;0.82;;;21.40;60.30;;;;;;5071648;28;20067;-60
2022/06/15 02:48:34;;;;;;;1.20;0.73;;;21.40;60.30;;;;;;5071170;28;20041;-60
2022/06/15 02:51:05;;;;;;;1.15;0.70;;;21.40;60.30;;;;;;5071396;28;20864;-60
2022/06/15 02:53:31;;;;;;;2.08;0.90;;;21.40;60.30;;;;;;5071941;28;20089;-60
2022/06/15 02:55:57;;;;;;;2.60;0.90;;;21.40;60.30;;;;;;5070803;28;20036;-61
2022/06/15 02:58:32;;;;;;;2.28;0.70;;;21.30;60.20;;;;;;5071537;28;20049;-60
2022/06/15 03:00:58;;;;;;;1.48;0.80;;;21.30;60.30;;;;;;5071163;28;20052;-60
2022/06/15 03:03:23;;;;;;;1.75;0.80;;;21.30;60.30;;;;;;5071964;28;20044;-60
2022/06/15 03:05:52;;;;;;;2.15;0.80;;;21.30;60.20;;;;;;5072437;28;20041;-60
2022/06/15 03:08:17;;;;;;;;;;;21.30;60.20;;;;;;5072125;28;20052;-60
2022/06/15 03:10:43;;;;;;;2.00;0.90;;;21.30;60.20;;;;;;5072212;28;19927;-60
2022/06/15 03:13:09;;;;;;;1.20;0.70;;;21.30;60.30;;;;;;5072225;28;20041;-60
2022/06/15 03:15:34;;;;;;;1.27;0.70;;;21.30;60.30;;;;;;5072018;28;20048;-61
2022/06/15 03:18:00;;;;;;;2.33;0.73;;;21.30;60.30;;;;;;5071926;28;20051;-60
2022/06/15 03:20:26;;;;;;;2.03;0.80;;;21.30;60.30;;;;;;5072431;28;20047;-61
2022/06/15 03:22:51;;;;;;;2.15;0.90;;;21.30;60.30;;;;;;5071631;28;20527;-60
2022/06/15 03:25:17;;;;;;;1.00;0.55;;;21.30;60.30;;;;;;5072336;28;20059;-60
2022/06/15 03:27:42;;;;;;;1.73;0.75;;;21.30;60.30;;;;;;5072382;28;20044;-60
2022/06/15 03:30:08;;;;;;;1.48;0.90;;;21.30;60.30;;;;;;5070506;28;20139;-60
2022/06/15 03:32:34;;;;;;;1.85;0.70;;;21.30;60.30;;;;;;5072551;28;20040;-60
2022/06/15 03:35:00;;;;;;;1.23;0.52;;;21.20;60.20;;;;;;5071961;28;20048;-60
2022/06/15 03:37:26;;;;;;;1.65;0.70;;;21.20;60.20;;;;;;5070680;28;20055;-61
2022/06/15 03:39:54;;;;;;;1.88;0.80;;;21.20;60.20;;;;;;5071936;28;20448;-61
2022/06/15 03:42:22;;;;;;;1.52;0.75;;;21.20;60.30;;;;;;5072364;28;20093;-61
2022/06/15 03:44:47;;;;;;;;;;;21.20;60.30;;;;;;5070507;28;20105;-61
2022/06/15 03:47:16;;;;;;;1.67;0.82;;;21.20;60.20;;;;;;5071999;28;19920;-61
2022/06/15 03:49:47;;;;;;;1.73;0.73;;;21.20;60.30;;;;;;5072106;28;20080;-61
2022/06/15 03:52:13;;;;;;;1.90;0.70;;;21.20;60.30;;;;;;5071652;28;20094;-61
2022/06/15 03:54:38;;;;;;;2.17;0.75;;;21.20;60.30;;;;;;5072085;28;20158;-61
2022/06/15 03:57:04;;;;;;;1.40;0.63;;;21.20;60.20;;;;;;5072143;28;20043;-61
2022/06/15 03:59:30;;;;;;;2.10;0.70;;;21.20;60.30;;;;;;5071586;28;20056;-61
2022/06/15 04:01:56;;;;;;;2.13;0.75;;;21.20;60.20;;;;;;5071640;28;20045;-61
2022/06/15 04:04:21;;;;;;;1.08;0.70;;;21.20;60.20;;;;;;5071352;28;20491;-61
2022/06/15 04:06:48;;;;;;;1.75;0.70;;;21.20;60.20;;;;;;5071379;28;20047;-61
2022/06/15 04:09:14;;;;;;;3.05;0.90;;;21.20;60.20;;;;;;5072134;28;20072;-61
2022/06/15 04:14:24;;;;;;;1.50;0.80;;;21.20;60.30;;;;;;5072178;28;20048;-61
2022/06/15 04:16:53;;;;;;;1.83;0.70;;;21.20;60.30;;;;;;5071527;28;20054;-61
2022/06/15 04:19:20;;;;;;;1.52;0.70;;;21.20;60.30;;;;;;5071327;28;20037;-61
2022/06/15 04:21:46;;;;;;;0.95;0.55;;;21.20;60.30;;;;;;5071808;28;20121;-61
2022/06/15 04:24:11;;;;;;;1.95;0.90;;;21.30;60.40;;;;;;5073203;28;20087;-60
2022/06/15 04:26:38;;;;;;;1.88;0.65;;;21.30;60.40;;;;;;5074650;28;20133;-61
2022/06/15 04:29:04;;;;;;;1.05;0.60;;;21.30;60.40;;;;;;5075299;28;20037;-61
2022/06/15 04:31:29;;;;;;;1.77;0.70;;;21.30;60.40;;;;;;5075481;28;20492;-60
2022/06/15 04:33:55;;;;;;;2.17;0.85;;;21.30;60.40;;;;;;5074244;28;20054;-61
2022/06/15 04:36:21;;;;;;;2.45;1.55;;;21.30;60.30;;;;;;5075661;28;20048;-61
2022/06/15 04:38:46;;;;;;;2.17;0.90;;;21.30;60.30;;;;;;5073979;28;20044;-61
2022/06/15 04:41:12;;;;;;;0.98;0.70;;;21.30;60.40;;;;;;5074766;28;20032;-61
2022/06/15 04:43:37;;;;;;;2.40;0.90;;;21.30;60.40;;;;;;5075143;28;20044;-60
2022/06/15 04:46:03;;;;;;;1.08;0.70;;;21.30;60.50;;;;;;5074824;28;20046;-60
2022/06/15 04:48:29;;;;;;;2.60;1.00;;;21.30;60.40;;;;;;5074326;28;20052;-60
2022/06/15 04:50:55;;;;;;;1.90;1.00;;;21.30;60.40;;;;;;5074743;28;20116;-61
2022/06/15 04:53:21;;;;;;;1.52;0.80;;;21.30;60.40;;;;;;5075553;28;20076;-61
2022/06/15 04:55:46;;;;;;;1.80;0.80;;;21.30;60.30;;;;;;5074033;28;20079;-60
2022/06/15 04:58:12;;;;;;;1.95;0.80;;;21.40;60.40;;;;;;5075278;28;20136;-61
2022/06/15 05:00:40;;;;;;;2.05;0.90;;;21.40;60.50;;;;;;5074279;28;20115;-61
2022/06/15 05:03:06;;;;;;;1.92;0.73;;;21.40;60.40;;;;;;5074599;28;20055;-61
2022/06/15 05:05:32;;;;;;;1.25;0.80;;;21.40;60.40;;;;;;5075218;28;20111;-61
2022/06/15 05:07:57;;;;;;;1.75;0.90;;;21.40;60.40;;;;;;5073938;28;20083;-61
2022/06/15 05:10:23;;;;;;;2.13;0.88;;;21.40;60.50;;;;;;5074767;28;20036;-61
2022/06/15 05:12:49;;;;;;;1.75;0.85;;;21.40;60.50;;;;;;5074450;28;20586;-60
2022/06/15 05:15:15;;;;;;;2.35;0.73;;;21.40;60.50;;;;;;5073977;28;20123;-61
2022/06/15 05:17:42;;;;;;;1.63;0.85;;;21.50;60.50;;;;;;5074421;28;20047;-61
2022/06/15 05:20:11;;;;;;;1.50;0.75;;;21.50;60.50;;;;;;5074496;28;20377;-60
2022/06/15 05:22:37;;;;;;;2.92;0.98;;;21.50;60.40;;;;;;5073850;28;20510;-61
2022/06/15 05:25:04;;;;;;;1.42;0.80;;;21.50;60.50;;;;;;5074188;28;20048;-61
2022/06/15 05:27:31;;;;;;;1.52;0.80;;;21.50;60.40;;;;;;5074686;28;20089;-61
2022/06/15 05:29:57;;;;;;;1.20;0.63;;;21.50;60.30;;;;;;5073468;28;20089;-61
2022/06/15 05:32:22;;;;;;;1.45;0.70;;;21.50;60.40;;;;;;5074507;28;20131;-61
2022/06/15 05:34:48;;;;;;;1.73;0.73;;;21.60;60.50;;;;;;5074167;28;20052;-60
2022/06/15 05:37:14;;;;;;;1.25;0.70;;;21.60;60.40;;;;;;5073258;28;20044;-61
2022/06/15 05:39:40;;;;;;;1.13;0.60;;;21.60;60.40;;;;;;5074087;28;20048;-60
2022/06/15 05:42:06;;;;;;;1.67;0.82;;;21.60;60.40;;;;;;5074438;28;20066;-60
2022/06/15 05:44:51;;;;;;;0.98;0.60;;;21.60;60.40;;;;;;5073370;28;20037;-60
2022/06/15 05:47:16;;;;;;;1.88;1.00;;;21.60;60.50;;;;;;5074078;28;20066;-60
2022/06/15 05:49:42;;;;;;;1.67;0.80;;;21.60;60.50;;;;;;5073801;28;20115;-60
2022/06/15 05:52:08;;;;;;;2.50;0.95;;;21.60;60.50;;;;;;5073369;28;20384;-60
2022/06/15 05:54:33;;;;;;;2.10;0.70;;;21.60;60.50;;;;;;5074012;28;20127;-60
2022/06/15 05:56:59;;;;;;;1.10;0.70;;;21.60;60.50;;;;;;5072732;28;20160;-60
2022/06/15 05:59:24;;;;;;;1.90;0.80;;;21.60;60.50;;;;;;5073820;28;20090;-60
2022/06/15 06:01:50;;;;;;;1.55;0.80;;;21.70;60.60;;;;;;5073261;28;20094;-60
2022/06/15 06:04:16;;;;;;;1.27;0.70;;;21.70;60.50;;;;;;5073182;28;20044;-60
2022/06/15 06:06:42;;;;;;;1.60;0.98;;;21.70;60.50;;;;;;5073557;28;20048;-60
2022/06/15 06:09:07;;;;;;;2.17;1.00;;;21.70;60.40;;;;;;5073707;28;20476;-59
2022/06/15 06:11:33;;;;;;;2.65;0.80;;;21.70;60.30;;;;;;5073099;28;20040;-60
2022/06/15 06:13:58;;;;;;;2.83;1.00;;;21.70;60.40;;;;;;5073048;28;20040;-59
2022/06/15 06:16:24;;;;;;;2.45;1.08;;;21.70;60.40;;;;;;5073177;28;20044;-59
2022/06/15 06:18:51;;;;;;;5.28;1.20;;;21.80;60.40;;;;;;5072354;28;20488;-59
2022/06/15 06:21:17;;;;;;;2.30;0.90;;;21.80;60.50;;;;;;5073532;28;20108;-60
2022/06/15 06:23:43;;;;;;;2.63;0.90;;;21.80;60.60;;;;;;5073050;28;20044;-60
2022/06/15 06:26:18;;;;;;;2.08;0.80;;;21.80;60.50;;;;;;5072316;28;20511;-60
2022/06/15 06:28:44;;;;;;;4.18;1.10;;;21.80;60.70;;;;;;5073162;28;20480;-59
2022/06/15 06:31:09;;;;;;;4.85;0.77;;;21.80;60.60;;;;;;5073330;28;20085;-60
2022/06/15 06:33:36;;;;;;;3.13;0.90;;;21.80;60.70;;;;;;5071188;28;20041;-59
2022/06/15 06:36:04;;;;;;;3.33;0.80;;;21.80;60.90;;;;;;5072618;28;20080;-60
2022/06/15 06:38:30;;;;;;;3.33;0.93;;;21.80;61.00;;;;;;5071471;28;20500;-61
2022/06/15 06:40:56;;;;;;;3.30;0.90;;;21.90;61.10;;;;;;5072030;28;20174;-60
2022/06/15 06:43:22;;;;;;;3.33;0.95;;;21.90;61.20;;;;;;5072146;28;20040;-61
2022/06/15 06:45:48;;;;;;;1.58;0.73;;;21.90;61.30;;;;;;5072389;28;20032;-61
2022/06/15 06:48:13;;;;;;;3.60;0.95;;;21.90;61.90;;;;;;5070769;28;20123;-60
2022/06/15 06:50:40;;;;;;;1.42;0.90;;;21.90;61.40;;;;;;5072966;28;20120;-61
2022/06/15 06:53:06;;;;;;;2.28;0.95;;;21.90;61.40;;;;;;5072630;28;20040;-60
2022/06/15 06:55:32;;;;;;;2.50;0.90;;;22.00;61.40;;;;;;5072596;28;20041;-60
2022/06/15 06:57:58;;;;;;;2.28;1.10;;;21.90;61.30;;;;;;5072375;28;20048;-59
2022/06/15 07:00:24;;;;;;;3.80;1.30;;;21.90;61.20;;;;;;5072231;28;20045;-60
2022/06/15 07:02:50;;;;;;;2.45;1.20;;;22.00;61.10;;;;;;5072334;28;20040;-60
2022/06/15 07:05:16;;;;;;;2.50;1.10;;;21.90;61.00;;;;;;5072696;28;20040;-60
2022/06/15 07:07:41;;;;;;;2.72;1.20;;;21.90;61.00;;;;;;5071643;28;20045;-60
2022/06/15 07:10:07;;;;;;;4.80;1.40;;;21.90;61.00;;;;;;5072643;28;20042;-60
2022/06/15 07:12:33;;;;;;;2.45;1.02;;;21.90;61.00;;;;;;5072606;28;20048;-60
2022/06/15 07:14:59;;;;;;;2.15;1.23;;;21.90;61.00;;;;;;5071588;28;20041;-60
2022/06/15 07:17:25;;;;;;;4.45;1.08;;;21.90;61.00;;;;;;5071200;28;20055;-60
2022/06/15 07:19:50;;;;;;;4.25;1.10;;;21.90;61.00;;;;;;5071572;28;20048;-60
2022/06/15 07:22:16;;;;;;;2.03;1.00;;;21.90;61.10;;;;;;5071670;28;20073;-63
2022/06/15 07:24:41;;;;;;;6.38;1.83;;;21.90;61.20;;;;;;5071614;28;20040;-59
2022/06/15 07:27:07;;;;;;;4.53;0.98;;;21.90;61.20;;;;;;5072344;28;20063;-60
2022/06/15 07:29:33;;;;;;;2.42;1.17;;;21.90;61.10;;;;;;5071044;28;20122;-60
2022/06/15 07:31:58;;;;;;;2.20;0.90;;;21.90;61.00;;;;;;5070975;28;20116;-60
2022/06/15 07:34:24;;;;;;;3.80;1.10;;;21.90;61.00;;;;;;5072037;28;20083;-60
2022/06/15 07:36:49;;;;;;;2.10;0.95;;;21.90;61.10;;;;;;5070958;28;20044;-60
2022/06/15 07:39:19;;;;;;;5.88;1.00;;;21.80;61.00;;;;;;5072268;28;20044;-59
2022/06/15 07:41:45;;;;;;;4.88;1.02;;;21.90;61.20;;;;;;5071988;28;20055;-59
2022/06/15 07:44:11;;;;;;;3.20;1.20;;;21.90;61.30;;;;;;5071435;28;20044;-60
2022/06/15 07:46:36;;;;;;;3.28;1.10;;;21.90;61.40;;;;;;5072439;28;20040;-60
2022/06/15 07:51:52;;;;;;;4.88;1.13;;;21.90;61.40;;;;;;5070406;28;20477;-60
2022/06/15 07:54:18;;;;;;;4.93;1.00;;;21.80;61.30;;;;;;5069547;28;20049;-60
2022/06/15 07:56:43;;;;;;;4.32;1.25;;;21.90;61.30;;;;;;5070891;28;20052;-59
2022/06/15 07:59:09;;;;;;;4.35;1.00;;;21.90;61.30;;;;;;5073211;28;20047;-58
2022/06/15 08:01:35;;;;;;;3.53;1.20;;;21.90;61.40;;;;;;5076065;28;20098;-59
2022/06/15 08:04:01;;;;;;;6.07;1.17;;;21.90;61.40;;;;;;5074362;28;20048;-58
2022/06/15 08:06:27;;;;;;;3.75;1.10;;;21.90;61.60;;;;;;5075709;28;20507;-58
2022/06/15 08:08:52;;;;;;;2.75;0.95;;;21.90;61.50;;;;;;5075571;28;20369;-59
2022/06/15 08:11:18;;;;;;;5.53;1.15;;;21.90;61.60;;;;;;5075121;28;20045;-58
2022/06/15 08:13:44;;;;;;;4.03;1.00;;;21.90;61.60;;;;;;5075421;28;20067;-59
2022/06/15 08:16:09;;;;;;;3.67;1.08;;;21.90;61.60;;;;;;5075605;28;20101;-59
2022/06/15 08:18:41;;;;;;;5.68;1.33;;;21.90;61.60;;;;;;5073917;28;20377;-59
2022/06/15 08:21:09;;;;;;;1.88;1.00;;;21.90;61.50;;;;;;5074688;28;20162;-59
2022/06/15 08:23:36;;;;;;;2.92;1.02;;;21.90;61.50;;;;;;5073357;28;20045;-60
2022/06/15 08:26:08;;;;;;;1.88;1.00;;;21.90;61.50;;;;;;5073232;28;20404;-60
2022/06/15 08:28:36;;;;;;;5.10;1.20;;;21.90;61.50;;;;;;5074823;28;20041;-59
2022/06/15 08:31:02;;;;;;;3.20;1.13;;;21.90;61.50;;;;;;5074211;28;20572;-60
2022/06/15 08:33:27;;;;;;;3.03;1.20;;;21.90;61.50;;;;;;5074434;28;20075;-59
2022/06/15 08:35:53;;;;;;;4.15;1.23;;;21.90;61.40;;;;;;5075109;28;20396;-60
2022/06/15 08:38:21;;;;;;;2.45;1.00;;;21.90;61.40;;;;;;5075264;28;20090;-60
2022/06/15 08:40:55;;;;;;;3.17;1.13;;;22.00;61.50;;;;;;5074163;28;20098;-60
2022/06/15 08:43:34;;;;;;;3.97;1.10;;;21.90;61.50;;;;;;5056708;28;20531;-61
2022/06/15 08:46:32;;;;;;;3.28;1.10;;;21.90;61.30;;;;;;5071745;28;20404;-61
2022/06/15 08:49:10;;;;;;;5.75;1.20;;;21.90;61.10;;;;;;5039144;28;20056;-61
2022/06/15 08:51:47;;;;;;;3.88;1.15;;;21.90;61.00;;;;;;5073505;28;20487;-61
2022/06/15 08:54:38;;;;;;;2.97;0.82;;;21.90;60.90;;;;;;5074676;28;20121;-61
2022/06/15 08:57:09;;;;;;;3.47;0.90;;;21.90;60.90;;;;;;5074852;28;20049;-61
2022/06/15 08:59:54;;;;;;;2.72;1.00;;;21.90;60.90;;;;;;5075179;28;20037;-60
2022/06/15 09:02:41;;;;;;;4.55;1.20;;;21.90;60.60;;;;;;5074085;28;20045;-61
2022/06/15 09:05:32;;;;;;;8.93;1.30;;;21.90;60.50;;;;;;5073972;28;20479;-61
2022/06/15 09:08:16;;;;;;;2.60;1.25;;;21.90;60.00;;;;;;5073127;28;20045;-61
2022/06/15 09:11:19;;;;;;;4.90;1.30;;;21.90;59.80;;;;;;5073639;28;20049;-60
2022/06/15 09:14:08;;;;;;;3.63;1.20;;;21.90;59.80;;;;;;5070676;28;20115;-59
2022/06/15 09:17:10;;;;;;;7.28;1.63;;;21.90;60.00;;;;;;5060268;28;20052;-60
2022/06/15 09:19:43;;;;;;;6.63;2.47;;;21.90;60.60;;;;;;5061410;28;20053;-60
2022/06/15 09:22:18;;;;;;;8.82;2.88;;;21.90;60.10;;;;;;5072717;28;20097;-60
2022/06/15 09:24:48;;;;;;;10.18;3.10;;;21.90;60.10;;;;;;5073025;28;20058;-60
2022/06/15 09:27:35;;;;;;;6.93;2.63;;;21.90;60.10;;;;;;5073781;28;20037;-60
2022/06/15 09:30:08;;;;;;;9.27;2.92;;;21.90;60.10;;;;;;5071753;28;20626;-59
2022/06/15 09:32:46;;;;;;;9.13;2.95;;;21.90;60.20;;;;;;5073795;28;20492;-60
2022/06/15 09:35:16;;;;;;;11.43;3.08;;;21.90;60.10;;;;;;5073742;28;20097;-59
2022/06/15 09:37:53;;;;;;;8.02;2.95;;;21.90;60.10;;;;;;5073721;28;20048;-60
2022/06/15 09:40:19;;;;;;;9.25;2.92;;;21.90;60.10;;;;;;5071534;28;20416;-59
2022/06/15 09:43:09;;;;;;;8.40;3.08;;;22.00;60.10;;;;;;5071922;28;20056;-60
2022/06/15 09:45:55;;;;;;;7.40;2.95;;;21.90;60.10;;;;;;5073244;28;20040;-59
2022/06/15 09:48:33;;;;;;;9.77;3.30;;;21.90;60.10;;;;;;5073521;28;20060;-60
2022/06/15 09:51:07;;;;;;;7.40;2.55;;;21.90;60.10;;;;;;5073249;28;20208;-60
2022/06/15 09:53:57;;;;;;;7.47;2.90;;;21.90;60.20;;;;;;5074254;28;20045;-60
2022/06/15 09:56:23;;;;;;;7.07;3.00;;;22.00;60.20;;;;;;5074593;28;20041;-60
2022/06/15 09:59:06;;;;;;;10.00;3.25;;;22.00;60.20;;;;;;5071393;28;20528;-60
2022/06/15 10:01:38;;;;;;;6.50;2.78;;;21.90;60.10;;;;;;5072638;28;20062;-59
2022/06/15 10:04:04;;;;;;;7.30;2.70;;;21.90;60.10;;;;;;5073134;28;20043;-60
2022/06/15 10:06:45;;;;;;;6.53;2.75;;;21.90;60.70;;;;;;5073990;28;20415;-60
2022/06/15 10:09:12;;;;;;;5.55;2.42;;;21.90;59.90;;;;;;5072443;28;20059;-62
2022/06/15 10:11:41;;;;;;;8.02;2.78;;;21.90;59.80;;;;;;5072700;28;20045;-60
2022/06/15 10:14:30;;;;;;;9.13;2.70;;;22.00;59.60;;;;;;5072700;28;20041;-59
2022/06/15 10:16:58;;;;;;;5.85;2.00;;;21.90;59.30;;;;;;5073213;28;20504;-59
2022/06/15 10:19:24;;;;;;;4.63;1.75;;;21.90;59.00;;;;;;5072772;28;20116;-60
2022/06/15 10:21:52;;;;;;;6.00;1.83;;;21.90;58.60;;;;;;5070422;28;20545;-59
2022/06/15 10:24:22;;;;;;;6.07;1.80;;;21.90;58.40;;;;;;5070988;28;20488;-60
2022/06/15 10:26:49;;;;;;;6.38;2.20;;;22.00;58.30;;;;;;5071678;28;20564;-59
2022/06/15 10:29:15;;;;;;;7.25;2.30;;;22.00;58.40;;;;;;5073452;28;20041;-59
2022/06/15 10:31:59;;;;;;;5.75;1.70;;;22.00;58.40;;;;;;5072011;28;20165;-59
2022/06/15 10:34:27;;;;;;;7.03;2.03;;;22.00;58.60;;;;;;5072986;28;20469;-60
2022/06/15 10:36:55;;;;;;;5.25;2.00;;;22.00;58.70;;;;;;5072852;28;20044;-60
2022/06/15 10:39:22;;;;;;;;;;;22.00;58.50;;;;;;5071805;28;20098;-59
2022/06/15 10:41:51;;;;;;;5.03;1.65;;;22.00;58.60;;;;;;5071444;28;19973;-60
2022/06/15 10:44:27;;;;;;;6.38;2.03;;;22.00;58.50;;;;;;5072780;28;20131;-60
2022/06/15 10:47:18;;;;;;;4.93;1.80;;;22.00;58.40;;;;;;5071748;28;20037;-60
2022/06/15 10:49:46;;;;;;;4.75;1.70;;;22.00;58.40;;;;;;5055326;28;20045;-60
2022/06/15 10:52:32;;;;;;;7.13;1.92;;;22.00;58.40;;;;;;5071828;28;20045;-60
2022/06/15 11:04:02;;;;;;;3.90;1.52;;;22.10;58.50;;;;;;5071735;28;20082;-60
2022/06/15 11:06:46;;;;;;;3.78;1.60;;;22.00;58.50;;;;;;5067210;28;20040;-60
2022/06/15 11:09:22;;;;;;;4.68;1.55;;;22.00;58.30;;;;;;5051418;28;20041;-60
2022/06/15 11:11:48;;;;;;;6.07;1.60;;;22.00;58.20;;;;;;5050611;28;20051;-59
2022/06/15 11:14:19;;;;;;;4.43;1.58;;;22.00;58.70;;;;;;5050809;28;20041;-59
2022/06/15 11:19:29;;;;;;;5.40;1.35;;;22.10;57.90;;;;;;5051599;28;20049;-60
2022/06/15 11:22:00;;;;;;;5.25;1.50;;;22.10;57.50;;;;;;5050830;28;20045;-60
2022/06/15 11:24:33;;;;;;;3.47;1.15;;;22.10;57.30;;;;;;5050999;28;20408;-60
2022/06/15 11:27:24;;;;;;;3.60;1.73;;;22.10;57.00;;;;;;5051056;28;20045;-59
2022/06/15 11:30:07;;;;;;;4.57;1.20;;;22.10;57.00;;;;;;5045084;28;20154;-59
2022/06/15 11:32:35;;;;;;;2.10;1.00;;;22.10;57.00;;;;;;5062581;28;20044;-58
2022/06/15 11:35:14;;;;;;;3.92;1.00;;;22.10;56.90;;;;;;5070235;28;20055;-58
2022/06/15 11:37:55;;;;;;;3.78;1.52;;;22.10;56.60;;;;;;5104135;28;20048;-59
2022/06/15 11:40:27;;;;;;;4.53;1.30;;;22.10;56.40;;;;;;5071328;28;20048;-59
2022/06/15 11:42:53;;;;;;;4.63;1.20;;;22.10;56.30;;;;;;5071305;28;20055;-59
2022/06/15 11:45:21;;;;;;;3.78;1.23;;;22.10;56.40;;;;;;5070732;28;20059;-59
2022/06/15 11:48:12;;;;;;;5.88;1.27;;;22.10;56.40;;;;;;5070566;28;20496;-58
2022/06/15 11:50:58;;;;;;;6.38;1.55;;;22.10;56.40;;;;;;5070480;28;20040;-59
2022/06/15 11:53:44;;;;;;;2.88;0.90;;;22.20;56.60;;;;;;5071325;28;20045;-59
2022/06/15 11:56:11;;;;;;;3.05;1.17;;;22.20;56.70;;;;;;5071044;28;20044;-59
2022/06/15 11:58:59;;;;;;;2.10;1.02;;;22.20;56.80;;;;;;5070044;28;20484;-58
2022/06/15 12:01:46;;;;;;;2.42;1.00;;;22.20;56.80;;;;;;5068872;28;20115;-59
2022/06/15 12:04:31;;;;;;;3.53;1.40;;;22.20;56.90;;;;;;5071492;28;20049;-60
2022/06/15 12:07:05;;;;;;;3.17;1.20;;;22.20;57.10;;;;;;5070024;28;20494;-59
2022/06/15 12:10:00;;;;;;;2.15;1.00;;;22.20;57.00;;;;;;5071959;28;20055;-59
2022/06/15 12:12:40;;;;;;;2.35;0.98;;;22.20;56.90;;;;;;5067898;28;20044;-60
2022/06/15 12:15:17;;;;;;;5.35;1.30;;;22.20;56.90;;;;;;5071039;28;20048;-60
2022/06/15 12:18:03;;;;;;;3.75;1.17;;;22.30;57.10;;;;;;5069597;28;20036;-60
2022/06/15 12:20:51;;;;;;;3.00;0.90;;;22.20;57.10;;;;;;5070917;28;20049;-60
2022/06/15 12:23:23;;;;;;;2.80;1.20;;;22.20;57.30;;;;;;5071746;28;20395;-60
2022/06/15 12:26:12;;;;;;;3.75;1.08;;;22.30;57.40;;;;;;5068868;28;20084;-60
2022/06/15 12:28:57;;;;;;;4.03;1.25;;;22.30;57.40;;;;;;5071835;28;20053;-60
2022/06/15 12:31:42;;;;;;;2.42;0.95;;;22.30;57.50;;;;;;5070069;28;20041;-59
2022/06/15 12:34:17;;;;;;;2.28;0.90;;;22.30;57.70;;;;;;5071838;28;20127;-59
2022/06/15 12:36:47;;;;;;;4.70;1.10;;;22.30;57.70;;;;;;5038123;28;20044;-60
2022/06/15 12:39:18;;;;;;;4.75;0.95;;;22.30;57.80;;;;;;5069699;28;20119;-59
2022/06/15 12:44:34;;;;;;;3.90;1.10;;;22.30;58.00;;;;;;5056573;28;20411;-59
2022/06/15 12:47:00;;;;;;;5.38;2.47;;;22.40;58.10;;;;;;5071646;28;20052;-59
2022/06/15 12:49:47;;;;;;;6.60;1.90;;;22.40;58.30;;;;;;5073706;28;20048;-60
2022/06/15 12:52:20;;;;;;;4.53;1.70;;;22.40;58.60;;;;;;5074549;28;20127;-59
2022/06/15 12:55:08;;;;;;;4.18;1.45;;;22.40;58.70;;;;;;5074769;28;20460;-59
2022/06/15 12:57:37;;;;;;;3.28;1.38;;;22.40;58.70;;;;;;5069437;28;20044;-59
2022/06/15 13:00:02;;;;;;;2.88;1.20;;;22.40;57.90;;;;;;5074086;28;20049;-59
2022/06/15 13:02:51;;;;;;;3.50;1.48;;;22.40;57.60;;;;;;5074995;28;20052;-58
2022/06/15 13:05:29;;;;;;;4.50;1.35;;;22.40;56.80;;;;;;5073906;28;20052;-58
2022/06/15 13:08:16;;;;;;;2.80;1.38;;;22.40;56.40;;;;;;5073857;28;20041;-58
2022/06/15 13:10:53;;;;;;;3.20;1.23;;;22.50;56.90;;;;;;5074712;28;20044;-59
2022/06/15 13:13:25;;;;;;;3.08;1.58;;;22.50;56.60;;;;;;5074252;28;20123;-59
2022/06/15 13:15:51;;;;;;;3.53;1.40;;;22.50;56.90;;;;;;5057212;28;20057;-58
2022/06/15 13:18:17;;;;;;;6.15;1.40;;;22.50;56.80;;;;;;5074575;28;20037;-59
2022/06/15 13:20:45;;;;;;;4.38;1.33;;;22.50;56.70;;;;;;5055969;28;20044;-59
2022/06/15 13:23:28;;;;;;;2.60;1.13;;;22.50;56.30;;;;;;5073221;28;20071;-58
2022/06/15 13:26:03;;;;;;;3.10;1.30;;;22.50;55.60;;;;;;5073168;28;20056;-59
2022/06/15 13:28:33;;;;;;;4.18;1.50;;;22.60;55.60;;;;;;5073912;28;20048;-61